Time;durP1;ratioP1;P1;durP2;ratioP2;P2;SDS_P1;SDS_P2;PMS_P1;PMS_P2;Temp;Humidity;BMP_temperature;BMP_pressure;BME280_temperature;BME280_humidity;BME280_pressure;Samples;Min_cycle;Max_cycle;Signal;HPM_P1;HPM_P2
2021/04/04 00:02:00;;;;;;;14.70;2.37;;;;;;;;;;5015460;28;20221;-70
2021/04/04 00:04:25;;;;;;;23.97;3.30;;;;;;;;;;5025844;28;20208;-70
2021/04/04 00:06:51;;;;;;;18.73;3.00;;;;;;;;;;5016417;28;20190;-70
2021/04/04 00:09:19;;;;;;;20.23;3.13;;;;;;;;;;5026037;28;20679;-70
2021/04/04 00:11:49;;;;;;;15.13;2.80;;;;;;;;;;5026708;28;20884;-71
2021/04/04 00:14:14;;;;;;;22.20;3.30;;;;;;;;;;5016352;28;20243;-70
2021/04/04 00:16:40;;;;;;;20.37;3.30;;;;;;;;;;5026049;28;20190;-70
2021/04/04 00:19:06;;;;;;;18.00;3.00;;;;;;;;;;5016716;28;20346;-70
2021/04/04 00:21:31;;;;;;;16.93;3.10;;;;;;;;;;5024164;28;20189;-70
2021/04/04 00:23:56;;;;;;;19.40;3.30;;;;;;;;;;5017392;28;20191;-70
2021/04/04 00:26:22;;;;;;;20.43;3.30;;;;;;;;;;5025615;28;20561;-70
2021/04/04 00:28:47;;;;;;;20.63;3.97;;;;;;;;;;5017448;28;20209;-70
2021/04/04 00:31:12;;;;;;;17.20;2.70;;;;;;;;;;5024891;28;20227;-70
2021/04/04 00:33:38;;;;;;;18.20;3.10;;;;;;;;;;5016145;28;20213;-70
2021/04/04 00:36:03;;;;;;;16.27;2.87;;;;;;;;;;5026415;28;20216;-71
2021/04/04 00:38:29;;;;;;;13.37;2.87;;;;;;;;;;5017076;28;20189;-70
2021/04/04 00:40:54;;;;;;;20.23;3.00;;;;;;;;;;5025361;28;20781;-70
2021/04/04 00:43:20;;;;;;;21.97;2.77;;;;;;;;;;5023256;28;20217;-70
2021/04/04 00:45:45;;;;;;;17.00;2.83;;;;;;;;;;5019279;28;20225;-70
2021/04/04 00:48:10;;;;;;;18.03;2.70;;;;;;;;;;5025993;28;20192;-70
2021/04/04 00:50:39;;;;;;;18.73;2.53;;;;;;;;;;5017828;28;20233;-70
2021/04/04 00:53:05;;;;;;;15.73;2.53;;;;;;;;;;5024325;28;20247;-70
2021/04/04 00:55:32;;;;;;;21.77;2.73;;;;;;;;;;5017302;28;20204;-70
2021/04/04 00:57:57;;;;;;;18.77;2.70;;;;;;;;;;5024386;28;20193;-70
2021/04/04 01:00:30;;;;;;;19.93;3.07;;;;;;;;;;5015969;28;20197;-70
2021/04/04 01:02:56;;;;;;;22.70;3.53;;;;;;;;;;5024300;28;20221;-70
2021/04/04 01:05:31;;;;;;;17.27;3.23;;;;;;;;;;5017743;28;20236;-70
2021/04/04 01:07:57;;;;;;;18.80;3.80;;;;;;;;;;5025335;28;20197;-70
2021/04/04 01:10:26;;;;;;;23.57;3.07;;;;;;;;;;5016746;28;20197;-71
2021/04/04 01:13:10;;;;;;;11.27;2.50;;;;;;;;;;5025865;28;20210;-70
2021/04/04 01:15:53;;;;;;;14.27;2.60;;;;;;;;;;5017831;28;20189;-71
2021/04/04 01:18:31;;;;;;;18.80;3.43;;;;;;;;;;5024445;28;20197;-70
2021/04/04 01:20:59;;;;;;;14.40;2.60;;;;;;;;;;5019420;28;20197;-71
2021/04/04 01:23:55;;;;;;;15.13;2.90;;;;;;;;;;5025178;28;20614;-70
2021/04/04 01:26:35;;;;;;;18.83;2.50;;;;;;;;;;5018599;28;20228;-70
2021/04/04 01:29:02;;;;;;;16.93;3.10;;;;;;;;;;5027015;28;20173;-70
2021/04/04 01:31:28;;;;;;;14.57;2.67;;;;;;;;;;5020486;28;20276;-70
2021/04/04 01:33:57;;;;;;;15.63;3.03;;;;;;;;;;5027625;28;20185;-70
2021/04/04 01:36:23;;;;;;;17.97;2.97;;;;;;;;;;5021527;28;20224;-71
2021/04/04 01:38:51;;;;;;;21.67;3.37;;;;;;;;;;5024678;28;21657;-70
2021/04/04 01:41:32;;;;;;;15.80;2.90;;;;;;;;;;5028285;28;20208;-70
2021/04/04 01:44:02;;;;;;;17.30;2.30;;;;;;;;;;5020894;28;20201;-70
2021/04/04 01:46:29;;;;;;;18.30;3.20;;;;;;;;;;5028932;28;20270;-70
2021/04/04 01:48:55;;;;;;;14.33;2.50;;;;;;;;;;5020440;28;20194;-70
2021/04/04 01:51:22;;;;;;;10.47;2.53;;;;;;;;;;5026679;28;20239;-70
2021/04/04 01:53:49;;;;;;;20.80;2.80;;;;;;;;;;5020132;28;20190;-70
2021/04/04 01:56:15;;;;;;;23.07;3.60;;;;;;;;;;5027331;28;20194;-70
2021/04/04 01:58:42;;;;;;;14.50;2.53;;;;;;;;;;5021734;28;20193;-70
2021/04/04 02:01:10;;;;;;;16.60;3.10;;;;;;;;;;5026027;28;20190;-70
2021/04/04 02:03:36;;;;;;;16.23;2.53;;;;;;;;;;5020568;28;20217;-70
2021/04/04 02:06:02;;;;;;;14.30;2.50;;;;;;;;;;5028082;28;20236;-70
2021/04/04 02:08:28;;;;;;;18.83;2.47;;;;;;;;;;5020705;28;20190;-70
2021/04/04 02:10:55;;;;;;;15.00;2.60;;;;;;;;;;5026851;28;20188;-70
2021/04/04 02:13:23;;;;;;;16.97;2.73;;;;;;;;;;5018910;28;20189;-70
2021/04/04 02:15:48;;;;;;;14.97;2.93;;;;;;;;;;5028379;28;20308;-70
2021/04/04 02:18:14;;;;;;;15.73;2.87;;;;;;;;;;5028063;28;20256;-70
2021/04/04 02:20:40;;;;;;;20.60;4.70;;;;;;;;;;5019781;28;20197;-69
2021/04/04 02:23:10;;;;;;;21.00;2.97;;;;;;;;;;5028165;28;20232;-69
2021/04/04 02:25:36;;;;;;;22.27;3.30;;;;;;;;;;5017366;28;20197;-69
2021/04/04 02:28:01;;;;;;;17.80;3.27;;;;;;;;;;5028952;28;20194;-71
2021/04/04 02:30:27;;;;;;;19.87;3.60;;;;;;;;;;5020317;28;20198;-69
2021/04/04 02:33:11;;;;;;;17.23;3.33;;;;;;;;;;5024948;28;20545;-69
2021/04/04 02:35:40;;;;;;;19.90;3.20;;;;;;;;;;5020997;28;20537;-70
2021/04/04 02:38:15;;;;;;;23.77;2.70;;;;;;;;;;5025973;28;20251;-69
2021/04/04 02:40:44;;;;;;;22.10;2.90;;;;;;;;;;5020135;28;20204;-70
2021/04/04 02:43:14;;;;;;;15.03;2.60;;;;;;;;;;5024329;28;20208;-70
2021/04/04 02:45:42;;;;;;;23.40;5.50;;;;;;;;;;5018660;28;20190;-69
2021/04/04 02:48:15;;;;;;;22.07;3.33;;;;;;;;;;5026148;28;20269;-69
2021/04/04 02:50:42;;;;;;;14.03;2.70;;;;;;;;;;5019236;28;20701;-69
2021/04/04 02:53:09;;;;;;;15.70;3.20;;;;;;;;;;5026171;28;20236;-69
2021/04/04 02:55:37;;;;;;;16.87;3.57;;;;;;;;;;5018839;28;20556;-69
2021/04/04 02:58:04;;;;;;;22.00;2.80;;;;;;;;;;5027418;28;20533;-69
2021/04/04 03:00:30;;;;;;;19.47;3.20;;;;;;;;;;5026780;28;20540;-69
2021/04/04 03:02:58;;;;;;;12.67;2.60;;;;;;;;;;5016817;28;20212;-70
2021/04/04 03:05:26;;;;;;;17.80;2.50;;;;;;;;;;5026278;28;20205;-70
2021/04/04 03:07:53;;;;;;;18.03;3.60;;;;;;;;;;5017852;28;20186;-70
2021/04/04 03:10:18;;;;;;;15.80;2.97;;;;;;;;;;5025136;28;20974;-71
2021/04/04 03:12:46;;;;;;;16.57;2.73;;;;;;;;;;5019339;28;20219;-71
2021/04/04 03:15:14;;;;;;;19.27;3.20;;;;;;;;;;5026951;28;20201;-70
2021/04/04 03:17:42;;;;;;;20.43;2.43;;;;;;;;;;5018492;28;20268;-70
2021/04/04 03:20:09;;;;;;;15.80;2.60;;;;;;;;;;5025824;28;20226;-70
2021/04/04 03:22:37;;;;;;;12.93;2.97;;;;;;;;;;5017814;28;20240;-70
2021/04/04 03:25:04;;;;;;;18.30;2.93;;;;;;;;;;5026877;28;20194;-70
2021/04/04 03:27:30;;;;;;;12.73;2.77;;;;;;;;;;5017154;28;20312;-70
2021/04/04 03:29:56;;;;;;;15.87;3.13;;;;;;;;;;5024236;28;20190;-70
2021/04/04 03:32:22;;;;;;;19.67;2.93;;;;;;;;;;5025730;28;20509;-70
2021/04/04 03:34:48;;;;;;;13.23;2.53;;;;;;;;;;5023924;28;20197;-70
2021/04/04 03:37:14;;;;;;;14.37;2.80;;;;;;;;;;5021006;28;20186;-70
2021/04/04 03:39:40;;;;;;;12.30;3.37;;;;;;;;;;5018575;28;20232;-70
2021/04/04 03:42:06;;;;;;;13.50;2.80;;;;;;;;;;5026479;28;21229;-70
2021/04/04 03:44:34;;;;;;;13.10;2.90;;;;;;;;;;5020184;28;20189;-70
2021/04/04 03:47:01;;;;;;;11.43;2.63;;;;;;;;;;5025697;28;20688;-70
2021/04/04 03:49:28;;;;;;;12.37;2.67;;;;;;;;;;5014597;28;20642;-69
2021/04/04 03:51:56;;;;;;;15.30;3.03;;;;;;;;;;5026341;28;20189;-69
2021/04/04 03:54:23;;;;;;;16.97;2.70;;;;;;;;;;5018544;28;20181;-70
2021/04/04 03:56:50;;;;;;;10.17;2.70;;;;;;;;;;5026669;28;20672;-69
2021/04/04 03:59:20;;;;;;;17.63;3.17;;;;;;;;;;5017615;28;21326;-70
2021/04/04 04:01:47;;;;;;;15.47;2.47;;;;;;;;;;5027070;28;20194;-70
2021/04/04 04:04:14;;;;;;;11.93;2.80;;;;;;;;;;5017520;28;20352;-70
2021/04/04 04:06:41;;;;;;;15.83;2.90;;;;;;;;;;5024762;28;20182;-70
2021/04/04 04:09:08;;;;;;;12.43;2.60;;;;;;;;;;5022979;28;20199;-70
2021/04/04 04:11:37;;;;;;;16.23;2.77;;;;;;;;;;5017332;28;20669;-70
2021/04/04 04:14:04;;;;;;;10.97;2.27;;;;;;;;;;5025045;28;20273;-70
2021/04/04 04:16:30;;;;;;;14.87;3.37;;;;;;;;;;5017290;28;20190;-69
2021/04/04 04:18:56;;;;;;;12.57;3.20;;;;;;;;;;5025609;28;20652;-69
2021/04/04 04:21:22;;;;;;;17.60;3.00;;;;;;;;;;5016665;28;20194;-69
2021/04/04 04:23:48;;;;;;;18.00;3.33;;;;;;;;;;5025464;28;20208;-69
2021/04/04 04:26:15;;;;;;;16.30;4.37;;;;;;;;;;5016723;28;20193;-69
2021/04/04 04:28:41;;;;;;;20.10;4.40;;;;;;;;;;5027314;28;20236;-70
2021/04/04 04:31:16;;;;;;;21.30;4.40;;;;;;;;;;5015605;28;20197;-69
2021/04/04 04:33:43;;;;;;;20.20;4.93;;;;;;;;;;5027348;28;20209;-69
2021/04/04 04:36:09;;;;;;;25.03;4.73;;;;;;;;;;5015080;28;20209;-69
2021/04/04 04:38:39;;;;;;;18.00;4.63;;;;;;;;;;5029774;28;20181;-69
2021/04/04 04:41:06;;;;;;;18.63;3.60;;;;;;;;;;5015260;28;20185;-69
2021/04/04 04:43:32;;;;;;;15.57;3.60;;;;;;;;;;5023419;28;20205;-70
2021/04/04 04:45:58;;;;;;;14.40;3.20;;;;;;;;;;5024032;28;20194;-69
2021/04/04 04:48:23;;;;;;;18.80;2.70;;;;;;;;;;5016648;28;20197;-69
2021/04/04 04:50:49;;;;;;;17.70;2.60;;;;;;;;;;5024880;28;20588;-69
2021/04/04 04:53:14;;;;;;;21.87;3.77;;;;;;;;;;5015698;28;20181;-69
2021/04/04 04:55:42;;;;;;;13.90;3.23;;;;;;;;;;5022367;28;20190;-70
2021/04/04 04:58:08;;;;;;;16.33;3.33;;;;;;;;;;5014136;28;20203;-69
2021/04/04 05:00:35;;;;;;;16.27;3.07;;;;;;;;;;5024599;28;20190;-69
2021/04/04 05:03:01;;;;;;;20.77;3.70;;;;;;;;;;5014842;28;20224;-69
2021/04/04 05:05:26;;;;;;;15.60;4.00;;;;;;;;;;5020174;28;20186;-69
2021/04/04 05:07:53;;;;;;;14.93;3.10;;;;;;;;;;5017668;28;21652;-69
2021/04/04 05:10:21;;;;;;;12.20;2.67;;;;;;;;;;5022591;28;20193;-71
2021/04/04 05:12:53;;;;;;;18.00;3.00;;;;;;;;;;5015660;28;20190;-70
2021/04/04 05:15:19;;;;;;;12.80;3.80;;;;;;;;;;5022061;28;20268;-69
2021/04/04 05:17:45;;;;;;;13.33;2.60;;;;;;;;;;5024982;28;20188;-69
2021/04/04 05:20:12;;;;;;;10.53;2.73;;;;;;;;;;5012988;28;20224;-70
2021/04/04 05:22:38;;;;;;;11.60;2.30;;;;;;;;;;5026466;28;20208;-70
2021/04/04 05:25:06;;;;;;;15.90;2.80;;;;;;;;;;5015953;28;21259;-69
2021/04/04 05:27:31;;;;;;;19.53;2.83;;;;;;;;;;5022706;28;20658;-70
2021/04/04 05:30:03;;;;;;;12.17;2.50;;;;;;;;;;5015058;28;20186;-70
2021/04/04 05:32:28;;;;;;;10.23;2.10;;;;;;;;;;5020933;28;20239;-70
2021/04/04 05:34:54;;;;;;;14.47;2.57;;;;;;;;;;5016513;28;20276;-69
2021/04/04 05:37:19;;;;;;;15.83;2.63;;;;;;;;;;5023620;28;20190;-69
2021/04/04 05:39:44;;;;;;;12.67;2.27;;;;;;;;;;5015445;28;20189;-71
2021/04/04 05:42:11;;;;;;;16.07;2.77;;;;;;;;;;5020087;28;20337;-68
2021/04/04 05:44:45;;;;;;;18.63;2.87;;;;;;;;;;5014245;28;20680;-69
2021/04/04 05:47:22;;;;;;;10.77;2.20;;;;;;;;;;5023823;28;20193;-69
2021/04/04 05:49:50;;;;;;;16.30;2.77;;;;;;;;;;5014976;28;20732;-69
2021/04/04 05:52:46;;;;;;;15.57;3.10;;;;;;;;;;5024553;28;20270;-69
2021/04/04 05:55:38;;;;;;;12.43;2.73;;;;;;;;;;5015584;28;20685;-69
2021/04/04 05:58:10;;;;;;;13.17;3.10;;;;;;;;;;5025821;28;20186;-70
2021/04/04 06:00:44;;;;;;;13.90;2.40;;;;;;;;;;5017443;28;20669;-70
2021/04/04 06:03:12;;;;;;;13.60;2.77;;;;;;;;;;5025316;28;20256;-70
2021/04/04 06:05:56;;;;;;;12.00;2.70;;;;;;;;;;5017043;28;20205;-70
2021/04/04 06:08:59;;;;;;;15.60;2.40;;;;;;;;;;5024315;28;20185;-70
2021/04/04 06:11:49;;;;;;;8.77;2.97;;;;;;;;;;5017547;28;20186;-70
2021/04/04 06:14:56;;;;;;;11.13;2.83;;;;;;;;;;5030379;28;20695;-70
2021/04/04 06:17:46;;;;;;;12.10;2.63;;;;;;;;;;5019050;28;20206;-70
2021/04/04 06:20:50;;;;;;;12.43;2.70;;;;;;;;;;5026142;28;20395;-70
2021/04/04 06:23:58;;;;;;;13.10;2.50;;;;;;;;;;5021849;28;20664;-70
2021/04/04 06:26:43;;;;;;;13.77;2.80;;;;;;;;;;5027779;28;20186;-69
2021/04/04 06:29:31;;;;;;;7.03;2.37;;;;;;;;;;5028022;28;20194;-70
2021/04/04 06:32:07;;;;;;;12.97;2.50;;;;;;;;;;5027656;28;20277;-70
2021/04/04 06:34:36;;;;;;;16.33;3.33;;;;;;;;;;5028762;28;20194;-70
2021/04/04 06:37:23;;;;;;;13.53;2.83;;;;;;;;;;5031062;28;20217;-70
2021/04/04 06:40:11;;;;;;;16.20;2.33;;;;;;;;;;5028713;28;20206;-70
2021/04/04 06:42:46;;;;;;;12.40;2.10;;;;;;;;;;5021723;28;20220;-70
2021/04/04 06:45:18;;;;;;;12.70;2.20;;;;;;;;;;5026982;28;20239;-70
2021/04/04 06:48:11;;;;;;;8.70;1.90;;;;;;;;;;5025167;28;20309;-70
2021/04/04 06:50:44;;;;;;;8.30;1.93;;;;;;;;;;5027566;28;20288;-69
2021/04/04 06:53:21;;;;;;;9.40;1.90;;;;;;;;;;5023029;28;20186;-69
2021/04/04 06:56:17;;;;;;;9.77;1.87;;;;;;;;;;5030371;28;20580;-70
2021/04/04 06:59:05;;;;;;;9.10;2.00;;;;;;;;;;5020197;28;23651;-70
2021/04/04 07:01:58;;;;;;;7.97;1.80;;;;;;;;;;5027731;28;20209;-70
2021/04/04 07:04:29;;;;;;;12.73;1.80;;;;;;;;;;5019146;28;20693;-70
2021/04/04 07:07:19;;;;;;;14.13;2.40;;;;;;;;;;5028079;28;20198;-70
2021/04/04 07:10:22;;;;;;;9.23;1.90;;;;;;;;;;5020295;28;20185;-70
2021/04/04 07:13:25;;;;;;;8.13;2.10;;;;;;;;;;5028134;28;20606;-71
2021/04/04 07:15:58;;;;;;;6.10;1.90;;;;;;;;;;5020225;28;20205;-69
2021/04/04 07:18:45;;;;;;;9.97;2.50;;;;;;;;;;5025833;28;20552;-70
2021/04/04 07:21:38;;;;;;;8.77;1.90;;;;;;;;;;5019358;28;20256;-70
2021/04/04 07:24:30;;;;;;;11.60;2.00;;;;;;;;;;5024688;28;20937;-70
2021/04/04 07:27:04;;;;;;;12.10;1.80;;;;;;;;;;5017495;28;20201;-70
2021/04/04 07:29:38;;;;;;;8.73;1.60;;;;;;;;;;5024576;28;20280;-69
2021/04/04 07:32:14;;;;;;;6.63;1.93;;;;;;;;;;5017819;28;20192;-69
2021/04/04 07:34:47;;;;;;;10.60;2.10;;;;;;;;;;5026269;28;20204;-69
2021/04/04 07:37:24;;;;;;;6.37;1.60;;;;;;;;;;5015897;28;20681;-69
2021/04/04 07:40:14;;;;;;;7.20;1.87;;;;;;;;;;5026801;28;20590;-70
2021/04/04 07:43:09;;;;;;;7.97;2.00;;;;;;;;;;5015473;28;20206;-69
2021/04/04 07:45:44;;;;;;;8.73;1.90;;;;;;;;;;5026054;28;20196;-69
2021/04/04 07:48:25;;;;;;;5.60;1.87;;;;;;;;;;5018053;28;20711;-69
2021/04/04 07:51:08;;;;;;;8.90;2.50;;;;;;;;;;5026265;28;20237;-69
2021/04/04 07:54:04;;;;;;;7.40;1.77;;;;;;;;;;4325856;28;10000724;-69
2021/04/04 07:56:55;;;;;;;8.77;2.20;;;;;;;;;;5016530;28;20212;-70
2021/04/04 07:59:26;;;;;;;7.23;1.87;;;;;;;;;;5019742;28;20198;-70
2021/04/04 08:02:09;;;;;;;8.23;1.87;;;;;;;;;;5015517;28;20190;-69
2021/04/04 08:04:44;;;;;;;9.80;2.40;;;;;;;;;;5016068;28;20212;-68
2021/04/04 08:07:27;;;;;;;11.20;2.73;;;;;;;;;;5013791;28;20260;-70
2021/04/04 08:10:11;;;;;;;7.97;2.17;;;;;;;;;;5020528;28;20182;-70
2021/04/04 08:12:55;;;;;;;11.07;3.43;;;;;;;;;;5009325;28;20622;-70
2021/04/04 08:15:25;;;;;;;12.07;2.70;;;;;;;;;;5015087;28;20618;-69
2021/04/04 08:17:50;;;;;;;13.13;2.50;;;;;;;;;;5011780;28;21347;-69
2021/04/04 08:20:34;;;;;;;11.33;2.87;;;;;;;;;;5017697;28;20204;-70
2021/04/04 08:23:17;;;;;;;11.60;2.33;;;;;;;;;;5011208;28;20754;-69
2021/04/04 08:25:54;;;;;;;7.27;2.50;;;;;;;;;;5021441;28;20193;-70
2021/04/04 08:28:33;;;;;;;9.53;3.67;;;;;;;;;;5012947;28;20197;-70
2021/04/04 08:31:12;;;;;;;11.03;3.17;;;;;;;;;;5023671;28;20615;-70
2021/04/04 08:34:31;;;;;;;8.83;2.63;;;;;;;;;;5011849;28;20208;-70
2021/04/04 08:37:04;;;;;;;13.43;3.10;;;;;;;;;;5019756;28;20231;-70
2021/04/04 08:39:33;;;;;;;14.00;2.97;;;;;;;;;;5012312;28;20564;-69
2021/04/04 08:42:02;;;;;;;10.50;3.10;;;;;;;;;;5018885;28;20519;-70
2021/04/04 08:44:35;;;;;;;9.70;3.37;;;;;;;;;;5015166;28;20219;-70
2021/04/04 08:47:17;;;;;;;11.87;3.50;;;;;;;;;;5021304;28;20197;-69
2021/04/04 08:49:44;;;;;;;12.13;3.97;;;;;;;;;;5014195;28;20245;-70
2021/04/04 08:52:17;;;;;;;10.67;3.60;;;;;;;;;;5026254;28;20546;-70
2021/04/04 08:54:51;;;;;;;13.47;3.17;;;;;;;;;;5018063;28;20181;-69
2021/04/04 08:57:43;;;;;;;13.40;3.33;;;;;;;;;;5024079;28;20304;-71
2021/04/04 09:00:11;;;;;;;11.03;3.37;;;;;;;;;;5017567;28;20208;-70
2021/04/04 09:03:01;;;;;;;12.50;3.87;;;;;;;;;;5025509;28;20263;-70
2021/04/04 09:05:34;;;;;;;12.20;3.60;;;;;;;;;;5017202;28;20205;-70
2021/04/04 09:08:02;;;;;;;15.87;3.90;;;;;;;;;;5020978;28;20197;-70
2021/04/04 09:10:31;;;;;;;16.70;4.67;;;;;;;;;;5016932;28;20676;-69
2021/04/04 09:12:57;;;;;;;12.67;3.60;;;;;;;;;;5016149;28;20189;-69
2021/04/04 09:15:24;;;;;;;14.33;4.07;;;;;;;;;;5022783;28;20204;-69
2021/04/04 09:17:55;;;;;;;11.27;3.70;;;;;;;;;;5010709;28;20202;-69
2021/04/04 09:20:40;;;;;;;15.57;4.57;;;;;;;;;;5020386;28;20193;-69
2021/04/04 09:23:06;;;;;;;14.37;4.30;;;;;;;;;;5013980;28;20225;-69
2021/04/04 09:25:34;;;;;;;10.57;3.50;;;;;;;;;;5023117;28;20194;-69
2021/04/04 09:28:06;;;;;;;15.13;4.00;;;;;;;;;;5016598;28;20236;-69
2021/04/04 09:30:35;;;;;;;13.10;4.60;;;;;;;;;;5026707;28;20217;-70
2021/04/04 09:33:06;;;;;;;14.37;4.37;;;;;;;;;;5011623;28;20201;-69
2021/04/04 09:35:32;;;;;;;9.77;3.60;;;;;;;;;;5025637;28;20551;-69
2021/04/04 09:38:04;;;;;;;10.93;3.77;;;;;;;;;;5012766;28;20190;-69
2021/04/04 09:40:31;;;;;;;14.23;4.20;;;;;;;;;;5027423;28;20198;-70
2021/04/04 09:43:05;;;;;;;14.53;4.70;;;;;;;;;;5014910;28;20217;-69
2021/04/04 09:45:31;;;;;;;11.67;4.63;;;;;;;;;;5022516;28;20664;-69
2021/04/04 09:47:56;;;;;;;20.67;4.70;;;;;;;;;;5020703;28;20189;-69
2021/04/04 09:50:29;;;;;;;12.80;4.33;;;;;;;;;;5024415;28;20266;-70
2021/04/04 09:52:56;;;;;;;16.23;5.00;;;;;;;;;;5018059;28;20618;-69
2021/04/04 09:55:23;;;;;;;13.48;5.10;;;;;;;;;;5028901;28;20203;-70
2021/04/04 09:57:53;;;;;;;15.07;4.60;;;;;;;;;;5014564;28;20205;-70
2021/04/04 10:00:31;;;;;;;14.60;5.33;;;;;;;;;;5023578;28;20207;-69
2021/04/04 10:03:08;;;;;;;12.50;4.53;;;;;;;;;;5026309;28;20209;-69
2021/04/04 10:05:40;;;;;;;14.77;5.30;;;;;;;;;;5023821;28;20185;-70
2021/04/04 10:08:17;;;;;;;11.82;4.82;;;;;;;;;;5023889;28;20190;-69
2021/04/04 10:10:47;;;;;;;13.90;5.05;;;;;;;;;;5016289;28;20500;-70
2021/04/04 10:13:13;;;;;;;18.02;5.18;;;;;;;;;;5022639;28;20532;-70
2021/04/04 10:15:43;;;;;;;12.15;5.45;;;;;;;;;;5014190;28;20196;-70
2021/04/04 10:18:10;;;;;;;15.55;4.97;;;;;;;;;;5019582;28;21736;-70
2021/04/04 10:20:40;;;;;;;12.32;5.18;;;;;;;;;;5014821;28;20276;-70
2021/04/04 10:23:06;;;;;;;11.65;4.82;;;;;;;;;;5023372;28;20210;-70
2021/04/04 10:25:32;;;;;;;12.55;5.30;;;;;;;;;;5015524;28;20235;-70
2021/04/04 10:28:03;;;;;;;13.63;5.45;;;;;;;;;;5020568;28;20793;-70
2021/04/04 10:30:31;;;;;;;12.20;4.60;;;;;;;;;;5014785;28;20196;-70
2021/04/04 10:33:23;;;;;;;14.88;4.70;;;;;;;;;;5022821;28;20194;-70
2021/04/04 10:35:49;;;;;;;11.95;5.60;;;;;;;;;;5016252;28;20202;-70
2021/04/04 10:38:24;;;;;;;12.75;5.10;;;;;;;;;;5026976;28;20200;-69
2021/04/04 10:40:58;;;;;;;14.20;5.75;;;;;;;;;;5019044;28;20521;-70
2021/04/04 10:43:39;;;;;;;14.45;5.15;;;;;;;;;;5026028;28;20292;-70
2021/04/04 10:46:15;;;;;;;13.60;4.93;;;;;;;;;;5015065;28;20193;-70
2021/04/04 10:48:43;;;;;;;13.75;5.18;;;;;;;;;;5022533;28;20247;-70
2021/04/04 10:51:11;;;;;;;18.05;5.93;;;;;;;;;;5016719;28;20930;-70
2021/04/04 10:53:37;;;;;;;15.55;5.07;;;;;;;;;;5026482;28;20182;-69
2021/04/04 10:56:08;;;;;;;13.30;5.90;;;;;;;;;;5020767;28;20209;-70
2021/04/04 10:58:34;;;;;;;12.13;5.13;;;;;;;;;;5023206;28;20189;-69
2021/04/04 11:01:03;;;;;;;11.82;5.32;;;;;;;;;;5025653;28;20540;-70
2021/04/04 11:03:29;;;;;;;16.48;5.85;;;;;;;;;;5020771;28;20220;-70
2021/04/04 11:05:55;;;;;;;15.73;4.93;;;;;;;;;;5023902;28;20435;-70
2021/04/04 11:08:21;;;;;;;14.45;6.03;;;;;;;;;;5016393;28;20204;-69
2021/04/04 11:10:48;;;;;;;11.93;5.10;;;;;;;;;;5028484;28;20281;-70
2021/04/04 11:13:18;;;;;;;14.68;5.13;;;;;;;;;;5014383;28;20273;-69
2021/04/04 11:15:52;;;;;;;14.65;5.90;;;;;;;;;;5024614;28;20228;-69
2021/04/04 11:18:23;;;;;;;12.43;6.05;;;;;;;;;;5020364;28;20281;-71
2021/04/04 11:20:53;;;;;;;11.85;5.47;;;;;;;;;;5025382;28;20711;-69
2021/04/04 11:23:20;;;;;;;15.50;6.63;;;;;;;;;;5016378;28;20267;-70
2021/04/04 11:25:46;;;;;;;14.20;5.93;;;;;;;;;;5026233;28;20247;-70
2021/04/04 11:28:19;;;;;;;15.32;5.38;;;;;;;;;;5014297;28;20193;-70
2021/04/04 11:30:47;;;;;;;11.80;5.28;;;;;;;;;;5026418;28;20208;-70
2021/04/04 11:33:15;;;;;;;12.48;5.45;;;;;;;;;;5016703;28;20194;-69
2021/04/04 11:36:08;;;;;;;14.30;5.45;;;;;;;;;;5026465;28;20208;-70
2021/04/04 11:38:49;;;;;;;20.00;5.40;;;;;;;;;;5016567;28;20562;-70
2021/04/04 11:41:15;;;;;;;14.15;5.30;;;;;;;;;;5024218;28;20189;-70
2021/04/04 11:43:42;;;;;;;15.68;5.80;;;;;;;;;;5014623;28;20316;-69
2021/04/04 11:46:43;;;;;;;13.68;5.28;;;;;;;;;;5015443;28;20243;-70
2021/04/04 11:49:31;;;;;;;16.75;6.25;;;;;;;;;;5011787;28;20193;-70
2021/04/04 11:51:58;;;;;;;13.50;5.18;;;;;;;;;;5018254;28;20194;-69
2021/04/04 11:54:46;;;;;;;13.75;5.43;;;;;;;;;;5013716;28;20479;-69
2021/04/04 11:57:20;;;;;;;14.10;5.15;;;;;;;;;;5027255;28;20216;-69
2021/04/04 11:59:48;;;;;;;12.52;4.85;;;;;;;;;;5016584;28;20668;-69
2021/04/04 12:02:16;;;;;;;16.13;5.38;;;;;;;;;;5025389;28;20940;-69
2021/04/04 12:04:48;;;;;;;18.23;5.68;;;;;;;;;;5019679;28;20635;-69
2021/04/04 12:07:15;;;;;;;15.82;6.13;;;;;;;;;;5025677;28;20185;-70
2021/04/04 12:09:43;;;;;;;14.48;5.50;;;;;;;;;;5020416;28;20186;-69
2021/04/04 12:12:10;;;;;;;15.93;5.50;;;;;;;;;;5025824;28;20178;-70
2021/04/04 12:14:49;;;;;;;12.55;5.80;;;;;;;;;;5027081;28;20190;-71
2021/04/04 12:17:15;;;;;;;14.70;5.43;;;;;;;;;;5018700;28;20656;-70
2021/04/04 12:19:45;;;;;;;14.10;5.35;;;;;;;;;;5027592;28;20568;-70
2021/04/04 12:22:15;;;;;;;12.30;4.82;;;;;;;;;;5019355;28;20214;-70
2021/04/04 12:24:49;;;;;;;12.98;4.53;;;;;;;;;;5026593;28;21096;-70
2021/04/04 12:27:18;;;;;;;15.95;5.25;;;;;;;;;;5014265;28;20190;-70
2021/04/04 12:29:46;;;;;;;13.50;4.90;;;;;;;;;;5026952;28;20672;-71
2021/04/04 12:32:22;;;;;;;14.48;5.00;;;;;;;;;;5012312;28;20218;-70
2021/04/04 12:34:50;;;;;;;16.17;5.45;;;;;;;;;;5026722;28;20203;-70
2021/04/04 12:37:18;;;;;;;11.93;5.28;;;;;;;;;;5020031;28;20200;-70
2021/04/04 12:39:44;;;;;;;14.27;5.10;;;;;;;;;;5026818;28;20744;-70
2021/04/04 12:42:11;;;;;;;13.27;5.20;;;;;;;;;;5015442;28;20219;-70
2021/04/04 12:44:39;;;;;;;20.13;6.35;;;;;;;;;;5027978;28;20575;-70
2021/04/04 12:47:06;;;;;;;13.88;5.50;;;;;;;;;;5019013;28;20394;-70
2021/04/04 12:49:32;;;;;;;14.00;5.72;;;;;;;;;;5027676;28;20313;-69
2021/04/04 12:51:57;;;;;;;12.88;5.93;;;;;;;;;;5027241;28;20604;-70
2021/04/04 12:54:26;;;;;;;14.43;6.03;;;;;;;;;;5021730;28;20244;-70
2021/04/04 12:56:51;;;;;;;13.73;6.00;;;;;;;;;;5026080;28;20185;-70
2021/04/04 12:59:17;;;;;;;12.60;6.10;;;;;;;;;;5016765;28;20262;-71
2021/04/04 13:01:43;;;;;;;13.50;5.68;;;;;;;;;;5025949;28;20208;-70
2021/04/04 13:04:20;;;;;;;12.63;6.05;;;;;;;;;;5012634;28;20254;-70
2021/04/04 13:06:45;;;;;;;14.32;6.15;;;;;;;;;;5024670;28;20189;-70
2021/04/04 13:09:15;;;;;;;13.63;5.95;;;;;;;;;;5014653;28;20208;-70
2021/04/04 13:11:42;;;;;;;14.88;6.07;;;;;;;;;;5025639;28;20817;-71
2021/04/04 13:14:09;;;;;;;12.73;5.55;;;;;;;;;;5017161;28;20181;-71
2021/04/04 13:16:35;;;;;;;14.68;5.93;;;;;;;;;;5024355;28;20202;-70
2021/04/04 13:19:01;;;;;;;12.75;6.10;;;;;;;;;;5018895;28;20193;-70
2021/04/04 13:21:31;;;;;;;13.00;5.70;;;;;;;;;;5022678;28;20186;-71
2021/04/04 13:23:59;;;;;;;15.38;5.72;;;;;;;;;;5021608;28;20243;-70
2021/04/04 13:26:32;;;;;;;12.50;5.55;;;;;;;;;;5027230;28;20196;-70
2021/04/04 13:29:04;;;;;;;12.23;5.72;;;;;;;;;;5026718;28;20190;-70
2021/04/04 13:31:31;;;;;;;13.43;6.20;;;;;;;;;;5028772;28;20627;-70
2021/04/04 13:34:08;;;;;;;12.30;6.22;;;;;;;;;;5027861;28;20277;-71
2021/04/04 13:36:56;;;;;;;17.65;6.45;;;;;;;;;;5019741;28;20271;-71
2021/04/04 13:39:37;;;;;;;15.13;6.28;;;;;;;;;;5025379;28;20196;-70
2021/04/04 13:42:04;;;;;;;15.32;5.93;;;;;;;;;;5029851;28;20611;-70
2021/04/04 13:44:29;;;;;;;18.00;6.38;;;;;;;;;;5028359;28;20182;-70
2021/04/04 13:46:57;;;;;;;14.85;7.25;;;;;;;;;;5019259;28;20627;-70
2021/04/04 13:49:36;;;;;;;16.20;6.03;;;;;;;;;;5025785;28;20733;-71
2021/04/04 13:52:13;;;;;;;13.43;6.05;;;;;;;;;;5023178;28;20193;-70
2021/04/04 13:54:40;;;;;;;16.65;6.20;;;;;;;;;;5027299;28;20213;-70
2021/04/04 13:57:06;;;;;;;14.27;5.97;;;;;;;;;;5021903;28;20189;-70
2021/04/04 13:59:33;;;;;;;14.02;6.53;;;;;;;;;;5024692;28;20192;-70
2021/04/04 14:01:59;;;;;;;12.57;6.05;;;;;;;;;;5017330;28;20189;-70
2021/04/04 14:04:36;;;;;;;14.00;6.45;;;;;;;;;;5025311;28;20212;-71
2021/04/04 14:07:12;;;;;;;14.45;6.25;;;;;;;;;;5016242;28;20285;-70
2021/04/04 14:09:40;;;;;;;16.38;6.30;;;;;;;;;;5025142;28;20173;-71
2021/04/04 14:12:07;;;;;;;15.77;6.25;;;;;;;;;;5015554;28;20654;-70
2021/04/04 14:14:34;;;;;;;19.35;6.80;;;;;;;;;;5025730;28;20287;-71
2021/04/04 14:17:01;;;;;;;13.63;6.05;;;;;;;;;;5018433;28;20190;-70
2021/04/04 14:19:28;;;;;;;15.77;5.95;;;;;;;;;;5037017;28;21338;-71
2021/04/04 14:21:54;;;;;;;14.18;5.55;;;;;;;;;;5021786;28;20186;-71
2021/04/04 14:24:20;;;;;;;14.02;6.03;;;;;;;;;;5026790;28;20239;-70
2021/04/04 14:26:45;;;;;;;11.70;5.63;;;;;;;;;;5026931;28;20207;-70
2021/04/04 14:29:12;;;;;;;15.05;6.20;;;;;;;;;;5021408;28;20237;-70
2021/04/04 14:31:37;;;;;;;17.70;5.90;;;;;;;;;;5024853;28;20202;-70
2021/04/04 14:34:03;;;;;;;13.32;6.30;;;;;;;;;;5023037;28;20316;-70
2021/04/04 14:36:29;;;;;;;14.60;5.95;;;;;;;;;;5029501;28;20197;-71
2021/04/04 14:38:54;;;;;;;17.52;8.43;;;;;;;;;;5021991;28;20198;-71
2021/04/04 14:41:20;;;;;;;13.85;6.05;;;;;;;;;;5028403;28;20197;-71
2021/04/04 14:46:11;;;;;;;17.80;7.22;;;;;;;;;;5028742;28;20197;-70
2021/04/04 14:48:36;;;;;;;13.95;6.40;;;;;;;;;;5018899;28;20202;-71
2021/04/04 14:51:02;;;;;;;15.50;5.80;;;;;;;;;;5026922;28;20217;-71
2021/04/04 14:53:29;;;;;;;16.80;6.10;;;;;;;;;;5020197;28;20182;-71
2021/04/04 14:55:57;;;;;;;18.63;6.40;;;;;;;;;;5027284;28;20274;-70
2021/04/04 14:58:24;;;;;;;15.43;5.63;;;;;;;;;;5031498;28;20763;-70
2021/04/04 15:00:50;;;;;;;15.07;5.95;;;;;;;;;;5020490;28;20196;-71